createdAt,value
2023-05-14T00:00:02.250Z,11.92
2023-05-14T00:02:29.930Z,12.15
2023-05-14T00:04:58.806Z,12.03
2023-05-14T00:07:30.745Z,11.72
2023-05-14T00:09:58.448Z,11.74
2023-05-14T00:12:26.347Z,11.63
2023-05-14T00:14:54.088Z,11.69
2023-05-14T00:17:21.573Z,11.39
2023-05-14T00:19:49.122Z,11.35
2023-05-14T00:22:18.002Z,11.40
2023-05-14T00:24:45.654Z,11.39
2023-05-14T00:27:13.103Z,11.56
2023-05-14T00:29:41.144Z,11.50
2023-05-14T00:32:09.273Z,11.31
2023-05-14T00:34:36.845Z,11.20
2023-05-14T00:37:04.355Z,10.94
2023-05-14T00:39:33.198Z,10.84
2023-05-14T00:42:00.824Z,10.82
2023-05-14T00:44:28.343Z,10.63
2023-05-14T00:46:56.071Z,10.52
2023-05-14T00:49:24.258Z,10.72
2023-05-14T00:51:51.899Z,10.76
2023-05-14T00:54:20.784Z,10.95
2023-05-14T00:56:49.703Z,10.45
2023-05-14T00:59:17.394Z,10.52
2023-05-14T01:01:45.005Z,10.33
2023-05-14T01:04:12.771Z,10.30
2023-05-14T01:06:51.956Z,10.28
2023-05-14T01:09:24.018Z,10.37
2023-05-14T01:11:56.786Z,10.28
2023-05-14T01:14:29.280Z,10.30
2023-05-14T01:16:57.698Z,10.14
2023-05-14T01:19:31.024Z,10.28
2023-05-14T01:21:59.981Z,10.14
2023-05-14T01:24:27.560Z,10.17
2023-05-14T01:27:13.306Z,10.22
2023-05-14T01:29:43.811Z,10.09
2023-05-14T01:32:11.801Z,10.06
2023-05-14T01:34:40.954Z,10.11
2023-05-14T01:37:12.437Z,9.68
2023-05-14T01:39:40.683Z,9.71
2023-05-14T01:42:08.760Z,9.98
2023-05-14T01:44:36.541Z,9.86
2023-05-14T01:47:04.478Z,9.96
2023-05-14T01:49:32.557Z,9.93
2023-05-14T01:52:00.364Z,10.02
2023-05-14T01:54:29.191Z,10.05
2023-05-14T01:56:56.669Z,9.94
2023-05-14T01:59:24.359Z,9.88
2023-05-14T02:01:51.884Z,9.51
2023-05-14T02:04:20.850Z,9.34
2023-05-14T02:06:48.389Z,9.47
2023-05-14T02:09:16.048Z,9.68
2023-05-14T02:11:44.921Z,9.54
2023-05-14T02:14:12.414Z,9.45
2023-05-14T02:16:39.921Z,9.40
2023-05-14T02:19:07.542Z,9.31
2023-05-14T02:21:35.070Z,9.06
2023-05-14T02:24:02.622Z,8.97
2023-05-14T02:26:30.097Z,9.08
2023-05-14T02:28:59.275Z,9.18
2023-05-14T02:31:26.794Z,9.10
2023-05-14T02:33:54.326Z,9.15
2023-05-14T02:36:21.827Z,9.15
2023-05-14T02:38:49.318Z,9.20
2023-05-14T02:41:16.813Z,9.36
2023-05-14T02:43:44.298Z,9.40
2023-05-14T02:46:13.410Z,9.28
2023-05-14T02:48:41.052Z,9.23
2023-05-14T02:51:09.359Z,9.26
2023-05-14T02:53:36.878Z,9.02
2023-05-14T02:56:05.057Z,8.82
2023-05-14T02:58:32.723Z,8.83
2023-05-14T03:01:00.367Z,8.92
2023-05-14T03:03:30.508Z,8.61
2023-05-14T03:05:58.534Z,8.68
2023-05-14T03:08:26.012Z,8.58
2023-05-14T03:10:53.580Z,8.66
2023-05-14T03:13:21.271Z,8.67
2023-05-14T03:15:49.083Z,8.64
2023-05-14T03:18:16.661Z,8.35
2023-05-14T03:20:45.476Z,8.18
2023-05-14T03:23:13.504Z,8.09
2023-05-14T03:25:41.043Z,8.11
2023-05-14T03:28:08.796Z,8.02
2023-05-14T03:30:36.434Z,8.03
2023-05-14T03:33:04.270Z,7.96
2023-05-14T03:35:31.848Z,8.10
2023-05-14T03:38:00.782Z,7.95
2023-05-14T03:40:28.587Z,7.93
2023-05-14T03:42:56.150Z,7.98
2023-05-14T03:45:24.074Z,7.98
2023-05-14T03:47:51.692Z,8.01
2023-05-14T03:50:19.406Z,8.01
2023-05-14T03:52:46.966Z,8.09
2023-05-14T03:55:15.824Z,8.15
2023-05-14T03:57:43.616Z,8.29
2023-05-14T04:00:13.173Z,8.53
2023-05-14T04:02:46.667Z,8.43
2023-05-14T04:05:14.218Z,8.50
2023-05-14T04:07:41.732Z,8.36
2023-05-14T04:10:10.271Z,8.31
2023-05-14T04:12:39.390Z,8.28
2023-05-14T04:15:08.285Z,8.26
2023-05-14T04:17:36.134Z,8.25
2023-05-14T04:20:04.349Z,8.32
2023-05-14T04:22:32.030Z,8.33
2023-05-14T04:24:59.537Z,8.30
2023-05-14T04:27:27.044Z,8.29
2023-05-14T04:29:55.934Z,8.34
2023-05-14T04:32:23.477Z,8.37
2023-05-14T04:34:51.005Z,8.38
2023-05-14T04:37:18.490Z,8.40
2023-05-14T04:39:46.001Z,8.49
2023-05-14T04:42:13.533Z,8.38
2023-05-14T04:44:41.033Z,8.39
2023-05-14T04:47:09.855Z,8.56
2023-05-14T04:49:37.314Z,8.59
2023-05-14T04:52:05.449Z,8.63
2023-05-14T04:54:33.083Z,8.45
2023-05-14T04:57:03.162Z,8.68
2023-05-14T04:59:30.812Z,8.78
2023-05-14T05:01:58.533Z,8.75
2023-05-14T05:04:27.378Z,8.86
2023-05-14T05:06:54.843Z,8.98
2023-05-14T05:09:22.460Z,9.00
2023-05-14T05:11:49.961Z,9.03
2023-05-14T05:14:17.627Z,9.10
2023-05-14T05:16:45.407Z,9.09
2023-05-14T05:19:12.976Z,9.22
2023-05-14T05:21:41.815Z,9.28
2023-05-14T05:24:09.484Z,9.39
2023-05-14T05:26:37.155Z,9.33
2023-05-14T05:29:04.794Z,9.41
2023-05-14T05:31:32.845Z,9.43
2023-05-14T05:34:01.050Z,9.59
2023-05-14T05:36:28.647Z,9.63
2023-05-14T05:38:57.480Z,9.60
2023-05-14T05:41:24.949Z,9.67
2023-05-14T05:43:52.450Z,9.62
2023-05-14T05:46:20.064Z,9.77
2023-05-14T05:48:47.579Z,9.93
2023-05-14T05:51:15.231Z,10.12
2023-05-14T05:53:42.741Z,10.17
2023-05-14T05:56:11.588Z,10.28
2023-05-14T05:58:39.529Z,10.37
2023-05-14T06:01:07.481Z,10.43
2023-05-14T06:03:35.398Z,10.58
2023-05-14T06:06:02.971Z,10.66
2023-05-14T06:08:30.577Z,10.65
2023-05-14T06:10:58.186Z,10.68
2023-05-14T06:13:27.015Z,10.83
2023-05-14T06:15:54.514Z,10.93
2023-05-14T06:18:22.021Z,11.15
2023-05-14T06:20:49.546Z,10.93
2023-05-14T06:23:17.123Z,11.06
2023-05-14T06:25:44.635Z,11.10
2023-05-14T06:28:12.240Z,11.13
2023-05-14T06:30:41.042Z,11.18
2023-05-14T06:33:08.587Z,11.34
2023-05-14T06:35:37.039Z,11.53
2023-05-14T06:38:04.620Z,11.71
2023-05-14T06:40:32.189Z,11.88
2023-05-14T06:43:00.015Z,12.04
2023-05-14T06:45:27.723Z,12.03
2023-05-14T06:47:56.695Z,12.25
2023-05-14T06:50:24.416Z,12.40
2023-05-14T06:52:52.186Z,12.51
2023-05-14T06:55:20.014Z,12.67
2023-05-14T06:57:47.520Z,12.69
2023-05-14T07:00:16.338Z,12.69
2023-05-14T07:02:43.880Z,12.71
2023-05-14T07:05:12.773Z,12.91
2023-05-14T07:07:40.276Z,12.88
2023-05-14T07:10:09.153Z,12.88
2023-05-14T07:12:36.682Z,12.92
2023-05-14T07:15:04.658Z,13.02
2023-05-14T07:17:32.193Z,13.11
2023-05-14T07:19:59.699Z,13.19
2023-05-14T07:22:28.483Z,13.33
2023-05-14T07:24:55.971Z,13.43
2023-05-14T07:27:23.492Z,13.44
2023-05-14T07:29:51.236Z,13.52
2023-05-14T07:32:18.756Z,13.28
2023-05-14T07:34:46.290Z,13.47
2023-05-14T07:37:13.796Z,13.69
2023-05-14T07:39:43.152Z,13.93
2023-05-14T07:42:10.677Z,14.00
2023-05-14T07:44:38.212Z,14.13
2023-05-14T07:47:07.460Z,14.32
2023-05-14T07:49:35.286Z,14.50
2023-05-14T07:52:02.920Z,14.27
2023-05-14T07:54:30.456Z,14.42
2023-05-14T07:56:59.299Z,14.55
2023-05-14T07:59:26.802Z,14.60
2023-05-14T08:01:54.420Z,14.68
2023-05-14T08:04:23.378Z,14.64
2023-05-14T08:06:51.042Z,14.84
2023-05-14T08:09:18.570Z,14.85
2023-05-14T08:11:46.046Z,15.02
2023-05-14T08:14:14.819Z,15.07
2023-05-14T08:16:42.435Z,15.22
2023-05-14T08:19:10.013Z,15.54
2023-05-14T08:21:37.571Z,15.67
2023-05-14T08:24:05.654Z,15.75
2023-05-14T08:26:33.156Z,15.68
2023-05-14T08:29:00.654Z,15.56
2023-05-14T08:31:29.541Z,15.45
2023-05-14T08:33:57.078Z,15.68
2023-05-14T08:36:24.570Z,15.83
2023-05-14T08:38:52.039Z,15.99
2023-05-14T08:41:19.856Z,16.01
2023-05-14T08:43:58.273Z,15.79
2023-05-14T08:46:26.344Z,16.01
2023-05-14T08:48:59.026Z,16.15
2023-05-14T08:51:27.612Z,16.40
2023-05-14T08:53:55.664Z,16.39
2023-05-14T08:56:23.791Z,16.47
2023-05-14T08:58:51.296Z,16.36
2023-05-14T09:01:19.898Z,16.35
2023-05-14T09:03:47.972Z,16.44
2023-05-14T09:06:17.298Z,16.37
2023-05-14T09:08:44.976Z,16.28
2023-05-14T09:11:12.846Z,16.14
2023-05-14T09:13:41.031Z,15.99
2023-05-14T09:16:08.741Z,16.08
2023-05-14T09:18:37.236Z,16.20
2023-05-14T09:21:05.526Z,16.08
2023-05-14T09:23:34.661Z,16.03
2023-05-14T09:26:05.858Z,15.97
2023-05-14T09:28:33.353Z,15.93
2023-05-14T09:31:00.870Z,15.97
2023-05-14T09:33:29.144Z,16.04
2023-05-14T09:36:00.285Z,16.08
2023-05-14T09:38:31.521Z,16.14
2023-05-14T09:41:01.173Z,16.02
2023-05-14T09:43:28.681Z,16.09
2023-05-14T09:45:56.193Z,16.02
2023-05-14T09:48:24.357Z,16.07
2023-05-14T09:50:52.541Z,16.16
2023-05-14T09:53:20.271Z,16.29
2023-05-14T09:55:49.244Z,15.95
2023-05-14T09:58:18.107Z,16.08
2023-05-14T10:00:47.261Z,15.97
2023-05-14T10:03:18.846Z,15.99
2023-05-14T10:05:50.230Z,15.78
2023-05-14T10:08:21.587Z,15.95
2023-05-14T10:10:50.458Z,15.84
2023-05-14T10:13:23.562Z,15.87
2023-05-14T10:15:54.614Z,15.87
2023-05-14T10:18:24.372Z,15.97
2023-05-14T10:20:58.471Z,16.00
2023-05-14T10:23:28.347Z,15.98
2023-05-14T10:25:55.932Z,16.18
2023-05-14T10:28:25.005Z,16.16
2023-05-14T10:30:52.546Z,16.25
2023-05-14T10:33:20.062Z,16.30
2023-05-14T10:35:58.112Z,16.14
2023-05-14T10:38:28.042Z,16.06
2023-05-14T10:40:57.767Z,15.83
2023-05-14T10:43:28.522Z,16.16
2023-05-14T10:45:56.481Z,16.11
2023-05-14T10:48:24.656Z,15.97
2023-05-14T10:50:52.881Z,15.84
2023-05-14T10:53:21.105Z,15.83
2023-05-14T10:55:48.644Z,15.82
2023-05-14T10:58:16.403Z,15.83
2023-05-14T11:00:48.975Z,15.77
2023-05-14T11:03:16.990Z,15.81
2023-05-14T11:05:45.203Z,15.83
2023-05-14T11:08:13.326Z,15.95
2023-05-14T11:10:40.864Z,16.01
2023-05-14T11:13:08.392Z,15.95
2023-05-14T11:15:36.122Z,15.91
2023-05-14T11:18:05.178Z,15.87
2023-05-14T11:20:33.106Z,15.90
2023-05-14T11:23:00.639Z,15.94
2023-05-14T11:25:28.259Z,16.01
2023-05-14T11:27:58.657Z,16.05
2023-05-14T11:30:26.293Z,16.08
2023-05-14T11:32:54.300Z,16.05
2023-05-14T11:35:23.731Z,16.13
2023-05-14T11:37:53.168Z,16.05
2023-05-14T11:40:21.444Z,16.10
2023-05-14T11:42:52.038Z,15.98
2023-05-14T11:45:26.226Z,15.89
2023-05-14T11:47:54.527Z,15.99
2023-05-14T11:50:23.872Z,16.03
2023-05-14T11:52:51.658Z,15.95
2023-05-14T11:55:19.171Z,16.06
2023-05-14T11:57:46.759Z,16.07
2023-05-14T12:00:21.379Z,16.13
2023-05-14T12:02:49.640Z,16.16
2023-05-14T12:05:17.406Z,16.10
2023-05-14T12:07:46.938Z,16.07
2023-05-14T12:10:14.542Z,16.01
2023-05-14T12:12:48.955Z,16.00
2023-05-14T12:15:17.282Z,15.94
2023-05-14T12:17:50.885Z,15.87
2023-05-14T12:20:18.538Z,15.86
2023-05-14T12:22:47.395Z,15.87
2023-05-14T12:25:14.966Z,15.86
2023-05-14T12:27:45.596Z,15.87
2023-05-14T12:30:34.686Z,15.88
2023-05-14T12:33:01.484Z,15.90
2023-05-14T12:35:29.016Z,15.95
2023-05-14T12:37:57.918Z,15.94
2023-05-14T12:40:25.625Z,15.90
2023-05-14T12:42:54.420Z,15.82
2023-05-14T12:45:23.813Z,15.93
2023-05-14T12:47:51.406Z,15.87
2023-05-14T12:50:19.051Z,15.87
2023-05-14T12:52:46.639Z,15.84
2023-05-14T12:55:15.465Z,15.87
2023-05-14T12:57:42.947Z,15.85
2023-05-14T13:00:21.264Z,15.85
2023-05-14T13:02:48.874Z,15.85
2023-05-14T13:05:16.400Z,15.88
2023-05-14T13:07:43.946Z,15.92
2023-05-14T13:10:12.094Z,15.93
2023-05-14T13:12:40.962Z,15.91
2023-05-14T13:15:09.658Z,15.91
2023-05-14T13:17:37.297Z,15.98
2023-05-14T13:20:06.124Z,16.06
2023-05-14T13:22:33.624Z,16.14
2023-05-14T13:25:01.132Z,16.10
2023-05-14T13:27:28.609Z,16.07
2023-05-14T13:29:57.679Z,15.99
2023-05-14T13:32:26.303Z,15.97
2023-05-14T13:34:53.804Z,15.91
2023-05-14T13:37:21.531Z,15.94
2023-05-14T13:39:51.318Z,15.85
2023-05-14T13:42:19.067Z,15.81
2023-05-14T13:44:46.673Z,15.60
2023-05-14T13:47:15.489Z,15.68
2023-05-14T13:49:43.668Z,15.71
2023-05-14T13:52:11.202Z,15.59
2023-05-14T13:54:38.911Z,15.62
2023-05-14T13:57:06.586Z,15.69
2023-05-14T13:59:34.092Z,15.69
2023-05-14T14:02:01.748Z,15.66
2023-05-14T14:04:30.709Z,15.69
2023-05-14T14:06:58.668Z,15.70
2023-05-14T14:09:26.331Z,15.68
2023-05-14T14:11:53.855Z,15.59
2023-05-14T14:14:21.453Z,15.55
2023-05-14T14:16:48.928Z,15.53
2023-05-14T14:19:17.795Z,15.55
2023-05-14T14:21:47.483Z,15.50
2023-05-14T14:24:14.990Z,15.43
2023-05-14T14:26:42.506Z,15.36
2023-05-14T14:29:10.054Z,15.28
2023-05-14T14:31:37.679Z,15.23
2023-05-14T14:34:05.485Z,15.16
2023-05-14T14:36:33.017Z,15.16
2023-05-14T14:39:01.888Z,15.12
2023-05-14T14:41:29.563Z,15.17
2023-05-14T14:43:57.359Z,15.01
2023-05-14T14:46:24.883Z,14.95
2023-05-14T14:48:52.727Z,15.04
2023-05-14T14:51:20.262Z,15.13
2023-05-14T14:53:47.794Z,15.00
2023-05-14T14:56:16.651Z,14.93
2023-05-14T14:58:45.389Z,15.10
2023-05-14T15:01:13.066Z,15.27
2023-05-14T15:03:41.070Z,15.28
2023-05-14T15:06:09.078Z,15.40
2023-05-14T15:08:36.583Z,15.46
2023-05-14T15:11:04.116Z,15.54
2023-05-14T15:13:33.055Z,15.54
2023-05-14T15:16:00.822Z,15.60
2023-05-14T15:18:28.404Z,15.63
2023-05-14T15:20:57.221Z,15.65
2023-05-14T15:23:24.740Z,15.70
2023-05-14T15:25:52.246Z,15.71
2023-05-14T15:28:23.083Z,15.71
2023-05-14T15:30:55.982Z,15.62
2023-05-14T15:33:23.886Z,15.62
2023-05-14T15:35:51.656Z,15.62
2023-05-14T15:38:19.184Z,15.63
2023-05-14T15:40:46.679Z,15.66
2023-05-14T15:43:14.276Z,15.65
2023-05-14T15:45:41.816Z,15.64
2023-05-14T15:48:10.746Z,15.54
2023-05-14T15:50:38.690Z,15.51
2023-05-14T15:53:06.277Z,15.42
2023-05-14T15:55:33.798Z,15.45
2023-05-14T15:58:01.307Z,15.44
2023-05-14T16:00:28.775Z,15.49
2023-05-14T16:02:56.344Z,15.48
2023-05-14T16:05:25.430Z,15.41
2023-05-14T16:07:52.996Z,15.43
2023-05-14T16:10:21.258Z,15.45
2023-05-14T16:12:48.881Z,15.42
2023-05-14T16:15:16.479Z,15.34
2023-05-14T16:17:44.146Z,15.37
2023-05-14T16:20:13.113Z,15.38
2023-05-14T16:22:42.209Z,15.39
2023-05-14T16:25:09.964Z,15.31
2023-05-14T16:27:37.579Z,15.22
2023-05-14T16:30:05.961Z,15.22
2023-05-14T16:32:33.746Z,15.20
2023-05-14T16:35:02.704Z,15.15
2023-05-14T16:37:30.277Z,15.11
2023-05-14T16:39:59.332Z,15.04
2023-05-14T16:42:27.500Z,15.02
2023-05-14T16:44:55.286Z,14.97
2023-05-14T16:47:22.954Z,14.91
2023-05-14T16:49:50.468Z,14.79
2023-05-14T16:52:17.974Z,14.63
2023-05-14T16:54:45.437Z,14.52
2023-05-14T16:57:14.491Z,14.61
2023-05-14T16:59:41.975Z,14.56
2023-05-14T17:02:10.006Z,14.50
2023-05-14T17:04:38.751Z,14.57
2023-05-14T17:07:06.454Z,14.54
2023-05-14T17:09:33.957Z,14.41
2023-05-14T17:12:01.458Z,14.43
2023-05-14T17:14:30.303Z,14.52
2023-05-14T17:16:57.861Z,14.51
2023-05-14T17:19:25.332Z,14.45
2023-05-14T17:21:52.813Z,14.53
2023-05-14T17:24:20.338Z,14.55
2023-05-14T17:26:47.869Z,14.53
2023-05-14T17:29:15.422Z,14.44
2023-05-14T17:31:44.250Z,14.49
2023-05-14T17:34:11.788Z,14.50
2023-05-14T17:36:39.548Z,14.53
2023-05-14T17:39:07.061Z,14.51
2023-05-14T17:41:34.572Z,14.52
2023-05-14T17:44:02.079Z,14.53
2023-05-14T17:46:29.656Z,14.56
2023-05-14T17:48:58.642Z,14.53
2023-05-14T17:51:26.274Z,14.51
2023-05-14T17:53:53.874Z,14.48
2023-05-14T17:56:21.436Z,14.41
2023-05-14T17:58:50.041Z,14.25
2023-05-14T18:01:17.654Z,14.38
2023-05-14T18:03:45.211Z,14.27
2023-05-14T18:06:15.002Z,14.26
2023-05-14T18:08:42.605Z,14.20
2023-05-14T18:11:10.244Z,14.26
2023-05-14T18:13:38.105Z,14.21
2023-05-14T18:16:06.550Z,14.14
2023-05-14T18:18:34.192Z,14.18
2023-05-14T18:21:01.798Z,14.08
2023-05-14T18:23:31.391Z,14.26
2023-05-14T18:25:58.895Z,14.26
2023-05-14T18:28:26.438Z,14.10
2023-05-14T18:30:53.915Z,14.03
2023-05-14T18:33:21.456Z,14.11
2023-05-14T18:35:48.995Z,14.09
2023-05-14T18:38:19.241Z,14.01
2023-05-14T18:40:49.345Z,13.82
2023-05-14T18:43:18.415Z,13.68
2023-05-14T18:45:47.308Z,13.51
2023-05-14T18:48:14.846Z,13.45
2023-05-14T18:50:42.341Z,13.63
2023-05-14T18:53:11.906Z,13.59
2023-05-14T18:55:42.339Z,13.46
2023-05-14T18:58:12.008Z,13.53
2023-05-14T19:00:39.635Z,13.77
2023-05-14T19:03:10.338Z,13.78
2023-05-14T19:05:37.959Z,13.66
2023-05-14T19:08:05.875Z,13.62
2023-05-14T19:10:34.638Z,13.54
2023-05-14T19:13:02.225Z,13.40
2023-05-14T19:15:31.064Z,13.34
2023-05-14T19:17:59.906Z,13.40
2023-05-14T19:20:27.585Z,13.33
2023-05-14T19:22:55.082Z,13.43
2023-05-14T19:25:22.567Z,13.47
2023-05-14T19:27:51.045Z,13.21
2023-05-14T19:30:18.624Z,13.18
2023-05-14T19:32:47.482Z,13.11
2023-05-14T19:35:15.075Z,12.93
2023-05-14T19:37:42.638Z,13.10
2023-05-14T19:40:10.690Z,13.04
2023-05-14T19:42:38.203Z,13.03
2023-05-14T19:45:06.723Z,13.00
2023-05-14T19:47:34.250Z,12.99
2023-05-14T19:50:04.056Z,12.96
2023-05-14T19:52:31.548Z,12.97
2023-05-14T19:54:59.164Z,12.96
2023-05-14T19:57:26.964Z,12.93
2023-05-14T19:59:54.528Z,12.92
2023-05-14T20:02:22.694Z,12.93
2023-05-14T20:04:50.380Z,12.92
2023-05-14T20:07:20.132Z,12.83
2023-05-14T20:09:47.729Z,12.77
2023-05-14T20:12:16.545Z,12.83
2023-05-14T20:14:44.105Z,12.74
2023-05-14T20:17:11.677Z,12.81
2023-05-14T20:19:39.216Z,12.75
2023-05-14T20:22:06.891Z,12.86
2023-05-14T20:24:35.753Z,12.74
2023-05-14T20:27:03.319Z,12.88
2023-05-14T20:29:30.953Z,12.94
2023-05-14T20:31:58.433Z,12.85
2023-05-14T20:34:25.986Z,12.85
2023-05-14T20:36:53.526Z,12.80
2023-05-14T20:39:21.098Z,12.90
2023-05-14T20:41:49.950Z,12.96
2023-05-14T20:44:18.434Z,12.87
2023-05-14T20:46:48.095Z,12.85
2023-05-14T20:49:15.853Z,13.03
2023-05-14T20:51:43.410Z,13.12
2023-05-14T20:54:10.934Z,13.15
2023-05-14T20:56:38.460Z,13.05
2023-05-14T20:59:07.283Z,12.76
2023-05-14T21:01:34.867Z,12.65
2023-05-14T21:04:02.540Z,12.49
2023-05-14T21:06:30.192Z,12.36
2023-05-14T21:08:57.692Z,12.29
2023-05-14T21:11:25.577Z,12.19
2023-05-14T21:13:53.342Z,12.13
2023-05-14T21:16:22.263Z,12.04
2023-05-14T21:18:49.836Z,12.13
2023-05-14T21:21:17.355Z,11.87
2023-05-14T21:23:44.846Z,12.04
2023-05-14T21:26:12.393Z,12.26
2023-05-14T21:28:39.938Z,12.40
2023-05-14T21:31:07.444Z,12.41
2023-05-14T21:33:36.236Z,12.23
2023-05-14T21:36:03.942Z,12.11
2023-05-14T21:38:32.456Z,11.97
2023-05-14T21:41:00.254Z,11.96
2023-05-14T21:43:27.878Z,11.92
2023-05-14T21:45:55.401Z,11.90
2023-05-14T21:48:23.114Z,11.99
2023-05-14T21:50:52.083Z,11.97
2023-05-14T21:53:19.603Z,12.15
2023-05-14T21:55:47.211Z,11.98
2023-05-14T21:58:14.718Z,11.84
2023-05-14T22:00:42.204Z,11.82
2023-05-14T22:03:09.750Z,11.61
2023-05-14T22:05:37.380Z,11.55
2023-05-14T22:08:07.239Z,11.52
2023-05-14T22:10:35.715Z,11.43
2023-05-14T22:13:03.217Z,11.58
2023-05-14T22:15:30.726Z,11.52
2023-05-14T22:17:58.295Z,11.44
2023-05-14T22:20:25.873Z,11.48
2023-05-14T22:22:53.453Z,11.45
2023-05-14T22:25:22.553Z,11.33
2023-05-14T22:27:50.310Z,11.32
2023-05-14T22:30:17.830Z,11.20
2023-05-14T22:32:45.406Z,11.17
2023-05-14T22:35:12.910Z,11.08
2023-05-14T22:37:40.402Z,11.06
2023-05-14T22:40:11.219Z,11.06
2023-05-14T22:42:40.099Z,11.07
2023-05-14T22:45:08.810Z,11.11
2023-05-14T22:47:36.401Z,11.01
2023-05-14T22:50:04.138Z,11.00
2023-05-14T22:52:31.632Z,11.05
2023-05-14T22:55:00.684Z,11.08
2023-05-14T22:57:28.236Z,11.22
2023-05-14T22:59:57.118Z,11.17
2023-05-14T23:02:24.636Z,11.08
2023-05-14T23:04:52.507Z,11.04
2023-05-14T23:07:20.180Z,11.15
2023-05-14T23:09:47.730Z,11.12
2023-05-14T23:12:15.182Z,11.10
2023-05-14T23:14:42.693Z,11.11
2023-05-14T23:17:11.482Z,11.12
2023-05-14T23:19:39.113Z,11.19
2023-05-14T23:22:06.765Z,11.26
2023-05-14T23:24:34.229Z,11.17
2023-05-14T23:27:01.756Z,11.16
2023-05-14T23:29:29.254Z,11.06
2023-05-14T23:31:56.754Z,10.88
2023-05-14T23:34:25.632Z,10.95
2023-05-14T23:36:53.251Z,10.97
2023-05-14T23:39:22.296Z,10.88
2023-05-14T23:41:49.760Z,10.83
2023-05-14T23:44:17.286Z,10.95
2023-05-14T23:46:44.968Z,11.00
2023-05-14T23:49:12.993Z,11.10
2023-05-14T23:51:41.909Z,10.96
2023-05-14T23:54:09.417Z,10.96
2023-05-14T23:56:36.949Z,10.94
2023-05-14T23:59:04.862Z,10.83
